Time;durP1;ratioP1;P1;durP2;ratioP2;P2;SDS_P1;SDS_P2;PMS_P1;PMS_P2;Temp;Humidity;BMP_temperature;BMP_pressure;BME280_temperature;BME280_humidity;BME280_pressure;Samples;Min_cycle;Max_cycle;Signal;HPM_P1;HPM_P2
2023/09/22 00:02:03;;;;;;;1.63;1.53;;;16.30;99.90;;;;;;5032932;28;20977;-61
2023/09/22 00:04:30;;;;;;;2.13;1.93;;;16.30;99.90;;;;;;5033281;28;20442;-62
2023/09/22 00:06:57;;;;;;;2.00;1.87;;;16.20;99.90;;;;;;5033174;28;20442;-61
2023/09/22 00:09:24;;;;;;;2.03;1.73;;;16.20;99.90;;;;;;5032908;28;20820;-61
2023/09/22 00:11:51;;;;;;;2.60;2.10;;;16.20;99.90;;;;;;5032880;28;20461;-61
2023/09/22 00:14:19;;;;;;;1.73;1.60;;;16.10;99.90;;;;;;5033239;28;20441;-61
2023/09/22 00:16:46;;;;;;;2.73;1.80;;;16.10;99.90;;;;;;5032927;28;20473;-61
2023/09/22 00:19:12;;;;;;;2.43;1.60;;;16.00;99.90;;;;;;5032939;28;20442;-62
2023/09/22 00:21:39;;;;;;;2.17;1.70;;;16.00;99.90;;;;;;5032645;28;20469;-61
2023/09/22 00:24:06;;;;;;;2.47;1.70;;;16.00;99.90;;;;;;5032739;28;20441;-60
2023/09/22 00:26:33;;;;;;;1.93;1.73;;;16.00;99.90;;;;;;5032769;28;20505;-62
2023/09/22 00:29:00;;;;;;;2.37;1.67;;;15.90;99.90;;;;;;5036687;28;20476;-62
2023/09/22 00:31:28;;;;;;;1.70;1.60;;;15.90;99.90;;;;;;5036654;28;20464;-62
2023/09/22 00:33:55;;;;;;;1.90;1.50;;;15.90;99.90;;;;;;5036731;28;20441;-61
2023/09/22 00:36:22;;;;;;;1.43;1.33;;;15.80;99.90;;;;;;5036779;28;20447;-61
2023/09/22 00:38:49;;;;;;;1.80;1.40;;;15.80;99.90;;;;;;5036736;28;20449;-61
2023/09/22 00:41:15;;;;;;;2.93;2.00;;;15.70;99.90;;;;;;5036521;28;20471;-61
2023/09/22 00:43:42;;;;;;;2.30;1.90;;;15.70;99.90;;;;;;5036999;28;20468;-61
2023/09/22 00:46:12;;;;;;;4.77;2.10;;;15.70;99.90;;;;;;5036451;28;20470;-60
2023/09/22 00:48:41;;;;;;;2.37;1.60;;;15.70;99.90;;;;;;5036554;28;20906;-60
2023/09/22 00:51:08;;;;;;;5.80;2.03;;;15.60;99.90;;;;;;5036453;28;20472;-60
2023/09/22 00:53:37;;;;;;;1.47;1.37;;;15.60;99.90;;;;;;5036572;28;20445;-60
2023/09/22 00:56:05;;;;;;;2.07;1.63;;;15.60;99.90;;;;;;5036376;28;20449;-60
2023/09/22 00:58:32;;;;;;;2.70;2.00;;;15.60;99.90;;;;;;5036301;28;20485;-60
2023/09/22 01:00:58;;;;;;;1.73;1.47;;;15.60;99.90;;;;;;5036066;28;20484;-60
2023/09/22 01:03:26;;;;;;;3.17;1.70;;;15.60;99.90;;;;;;5036019;28;20516;-60
2023/09/22 01:05:54;;;;;;;1.97;1.60;;;15.50;99.90;;;;;;5036217;28;20477;-60
2023/09/22 01:08:21;;;;;;;1.63;1.30;;;15.50;99.90;;;;;;5036207;28;20437;-60
2023/09/22 01:10:48;;;;;;;1.80;1.30;;;15.50;99.90;;;;;;5035985;28;20445;-60
2023/09/22 01:13:15;;;;;;;1.17;1.00;;;15.50;99.90;;;;;;5036339;28;20444;-59
2023/09/22 01:15:42;;;;;;;1.67;1.40;;;15.50;99.90;;;;;;5036152;28;20453;-60
2023/09/22 01:18:12;;;;;;;1.60;1.33;;;15.50;99.90;;;;;;5036255;28;20476;-60
2023/09/22 01:20:40;;;;;;;3.50;1.70;;;15.50;99.90;;;;;;5036366;28;20429;-60
2023/09/22 01:23:09;;;;;;;1.77;1.67;;;15.50;99.90;;;;;;5036464;28;20497;-60
2023/09/22 01:25:36;;;;;;;1.70;1.60;;;15.50;99.90;;;;;;5036019;28;20825;-60
2023/09/22 01:28:03;;;;;;;1.30;1.20;;;15.50;99.90;;;;;;5036141;28;20451;-61
2023/09/22 01:30:33;;;;;;;1.57;1.30;;;15.50;99.90;;;;;;5036110;28;20449;-60
2023/09/22 01:33:02;;;;;;;1.67;1.27;;;15.50;99.90;;;;;;5036072;28;20801;-60
2023/09/22 01:35:31;;;;;;;2.00;1.37;;;15.40;99.90;;;;;;5036604;28;20445;-59
2023/09/22 01:38:03;;;;;;;1.43;1.33;;;15.40;99.90;;;;;;5036425;28;20558;-60
2023/09/22 01:40:31;;;;;;;1.60;1.40;;;15.40;99.90;;;;;;5035724;28;20451;-60
2023/09/22 01:42:58;;;;;;;1.73;1.27;;;15.40;99.90;;;;;;5036216;28;20465;-59
2023/09/22 01:45:25;;;;;;;1.80;1.60;;;15.30;99.90;;;;;;5035900;28;20468;-60
2023/09/22 01:47:52;;;;;;;3.10;1.80;;;15.30;99.90;;;;;;5035801;28;20496;-59
2023/09/22 01:50:19;;;;;;;1.93;1.27;;;15.30;99.90;;;;;;5035484;28;20437;-60
2023/09/22 01:52:45;;;;;;;2.10;1.20;;;15.30;99.90;;;;;;5035649;28;20465;-60
2023/09/22 01:55:12;;;;;;;1.47;1.17;;;15.30;99.90;;;;;;5035322;28;20445;-60
2023/09/22 01:57:40;;;;;;;1.87;1.10;;;15.30;99.90;;;;;;5035300;28;20481;-59
2023/09/22 02:00:10;;;;;;;1.90;1.10;;;15.30;99.90;;;;;;5035449;28;20448;-61
2023/09/22 02:02:42;;;;;;;1.00;0.90;;;15.20;99.90;;;;;;5058344;22;20539;-63
2023/09/22 02:05:11;;;;;;;4.00;1.30;;;15.20;99.90;;;;;;5037298;28;20432;-63
2023/09/22 02:07:38;;;;;;;1.60;1.50;;;15.20;99.90;;;;;;5035582;28;21034;-63
2023/09/22 02:10:05;;;;;;;1.67;1.37;;;15.20;99.90;;;;;;5035909;28;20437;-63
2023/09/22 02:12:32;;;;;;;1.67;1.30;;;15.20;99.90;;;;;;5035281;28;20467;-63
2023/09/22 02:15:00;;;;;;;2.20;1.70;;;15.20;99.90;;;;;;5035616;28;20459;-64
2023/09/22 02:17:27;;;;;;;1.30;1.03;;;15.20;99.90;;;;;;5034630;28;21021;-63
2023/09/22 02:19:54;;;;;;;2.27;1.60;;;15.20;99.90;;;;;;5035044;28;20437;-63
2023/09/22 02:22:20;;;;;;;1.93;1.47;;;15.10;99.90;;;;;;5035006;28;20466;-63
2023/09/22 02:24:47;;;;;;;1.20;1.10;;;15.10;99.90;;;;;;5035288;28;20445;-63
2023/09/22 02:27:14;;;;;;;1.17;0.90;;;15.10;99.90;;;;;;5035120;28;20830;-63
2023/09/22 02:29:41;;;;;;;2.00;1.20;;;15.10;99.90;;;;;;5034814;28;20582;-63
2023/09/22 02:32:09;;;;;;;1.53;1.30;;;15.10;99.90;;;;;;5034849;28;20467;-63
2023/09/22 02:34:36;;;;;;;1.53;1.30;;;15.10;99.90;;;;;;5035300;28;20441;-62
2023/09/22 02:37:03;;;;;;;1.40;1.30;;;15.10;99.90;;;;;;5034850;28;21004;-63
2023/09/22 02:39:30;;;;;;;1.90;1.20;;;15.00;99.90;;;;;;5034871;28;20810;-63
2023/09/22 02:41:56;;;;;;;1.60;1.50;;;15.00;99.90;;;;;;5034659;28;20982;-63
2023/09/22 02:44:23;;;;;;;1.60;1.50;;;15.00;99.90;;;;;;5034500;28;20449;-63
2023/09/22 02:46:50;;;;;;;1.80;1.30;;;15.00;99.90;;;;;;5034627;28;20449;-63
2023/09/22 02:49:18;;;;;;;1.60;1.10;;;14.90;99.90;;;;;;5035138;28;20444;-63
2023/09/22 02:51:45;;;;;;;1.90;1.60;;;14.90;99.90;;;;;;5034810;28;20464;-63
2023/09/22 02:54:13;;;;;;;1.50;1.23;;;14.90;99.90;;;;;;5038723;28;20455;-64
2023/09/22 02:56:40;;;;;;;1.63;1.40;;;14.90;99.90;;;;;;5034759;28;20545;-63
2023/09/22 02:59:07;;;;;;;4.37;1.30;;;14.90;99.90;;;;;;5034234;28;20481;-64
2023/09/22 03:01:36;;;;;;;1.73;1.23;;;15.00;99.90;;;;;;5034044;28;20567;-64
2023/09/22 03:04:04;;;;;;;2.37;1.37;;;15.00;99.90;;;;;;5034038;28;20445;-64
2023/09/22 03:06:32;;;;;;;2.50;1.30;;;15.00;99.90;;;;;;5034826;28;20799;-64
2023/09/22 03:08:59;;;;;;;1.80;1.43;;;15.00;99.90;;;;;;5033921;28;20456;-64
2023/09/22 03:11:26;;;;;;;1.90;1.23;;;15.00;99.90;;;;;;5033749;28;20457;-64
2023/09/22 03:13:53;;;;;;;1.70;1.20;;;15.10;99.90;;;;;;5033892;28;20475;-62
2023/09/22 03:16:20;;;;;;;1.80;1.40;;;15.10;99.90;;;;;;5033814;28;20441;-64
2023/09/22 03:18:47;;;;;;;1.80;1.30;;;15.20;99.90;;;;;;5033876;28;20484;-63
2023/09/22 03:21:14;;;;;;;1.60;1.37;;;15.20;99.90;;;;;;5034205;28;20488;-64
2023/09/22 03:23:42;;;;;;;2.07;1.33;;;15.30;99.90;;;;;;5033911;28;20873;-64
2023/09/22 03:26:08;;;;;;;4.30;1.63;;;15.30;99.90;;;;;;5033914;28;20437;-63
2023/09/22 03:28:35;;;;;;;1.10;0.90;;;15.30;99.90;;;;;;5034285;28;20437;-64
2023/09/22 03:31:03;;;;;;;1.63;1.17;;;15.30;99.90;;;;;;5034125;28;20445;-64
2023/09/22 03:33:30;;;;;;;2.53;1.37;;;15.30;99.90;;;;;;5034558;28;20504;-63
2023/09/22 03:35:57;;;;;;;2.77;1.50;;;15.40;99.90;;;;;;5034913;28;20441;-64
2023/09/22 03:38:25;;;;;;;1.63;1.00;;;15.40;99.90;;;;;;5033718;28;20479;-64
2023/09/22 03:40:59;;;;;;;1.97;1.30;;;15.40;99.90;;;;;;5033729;28;20500;-63
2023/09/22 03:43:26;;;;;;;1.67;1.37;;;15.40;99.90;;;;;;5033359;28;20449;-63
2023/09/22 03:45:53;;;;;;;1.40;1.17;;;15.30;99.90;;;;;;5033677;28;20441;-63
2023/09/22 03:48:22;;;;;;;3.53;1.57;;;15.30;99.90;;;;;;5033374;28;20447;-63
2023/09/22 03:50:49;;;;;;;4.13;1.40;;;15.30;99.90;;;;;;5033510;28;20446;-64
2023/09/22 03:53:16;;;;;;;1.93;1.10;;;15.40;99.90;;;;;;5033339;28;20931;-65
2023/09/22 03:55:44;;;;;;;2.10;1.57;;;15.40;99.90;;;;;;5033959;28;20442;-64
2023/09/22 03:58:12;;;;;;;2.40;1.17;;;15.40;99.90;;;;;;5033755;28;20484;-64
2023/09/22 04:03:09;;;;;;;2.20;1.30;;;15.40;99.90;;;;;;5031470;28;20515;-61
2023/09/22 04:05:37;;;;;;;2.40;1.20;;;15.40;99.90;;;;;;5033539;28;20470;-61
2023/09/22 04:08:05;;;;;;;1.90;1.30;;;15.40;99.90;;;;;;5032881;28;20896;-61
2023/09/22 04:12:14;;;;;;;1.13;0.90;;;15.40;99.90;;;;;;5091280;28;20984;-62
2023/09/22 04:14:41;;;;;;;2.43;2.20;;;15.40;99.90;;;;;;5091467;28;20819;-62
2023/09/22 04:17:08;;;;;;;1.23;1.00;;;15.40;99.90;;;;;;5091502;28;20450;-61
2023/09/22 04:19:36;;;;;;;1.50;1.20;;;15.40;99.90;;;;;;5090993;28;20443;-62
2023/09/22 04:22:03;;;;;;;1.93;1.10;;;15.40;99.90;;;;;;5091296;28;20469;-61
2023/09/22 04:24:32;;;;;;;3.47;1.43;;;15.40;99.90;;;;;;5090962;28;20439;-59
2023/09/22 04:27:01;;;;;;;2.33;1.40;;;15.40;99.90;;;;;;5091114;28;20470;-62
2023/09/22 04:29:30;;;;;;;1.73;1.17;;;15.40;99.90;;;;;;5090474;28;20449;-62
2023/09/22 04:31:57;;;;;;;2.90;1.50;;;15.50;99.90;;;;;;5090678;28;20489;-61
2023/09/22 04:34:23;;;;;;;1.60;1.40;;;15.50;99.90;;;;;;5090393;28;20454;-61
2023/09/22 04:36:51;;;;;;;1.43;1.23;;;15.50;99.90;;;;;;5090110;28;20928;-62
2023/09/22 04:39:20;;;;;;;1.57;1.40;;;15.40;99.90;;;;;;5090204;28;20450;-61
2023/09/22 04:41:48;;;;;;;2.20;1.43;;;15.40;99.90;;;;;;5090378;28;20455;-61
2023/09/22 04:44:15;;;;;;;2.10;1.50;;;15.40;99.90;;;;;;5090770;28;20450;-61
2023/09/22 04:46:44;;;;;;;2.10;1.50;;;15.30;99.90;;;;;;5090254;28;20442;-62
2023/09/22 04:49:11;;;;;;;2.53;1.37;;;15.20;99.90;;;;;;5090616;28;20980;-61
2023/09/22 04:51:38;;;;;;;2.70;1.30;;;15.20;99.90;;;;;;5090452;28;20479;-60
2023/09/22 04:54:05;;;;;;;1.53;1.13;;;15.10;99.90;;;;;;5091056;28;20447;-61
2023/09/22 04:56:33;;;;;;;2.03;1.50;;;15.00;99.90;;;;;;5095928;28;20441;-61
2023/09/22 04:59:00;;;;;;;1.63;1.40;;;15.00;99.90;;;;;;5099530;28;20446;-62
2023/09/22 05:01:28;;;;;;;1.70;1.30;;;14.90;99.90;;;;;;5093775;28;20495;-62
2023/09/22 05:03:56;;;;;;;2.37;1.60;;;14.90;99.90;;;;;;5093453;28;20806;-61
2023/09/22 05:06:22;;;;;;;1.57;1.47;;;14.90;99.90;;;;;;5093079;28;20454;-61
2023/09/22 05:08:49;;;;;;;2.23;1.47;;;14.80;99.90;;;;;;5091488;28;20445;-61
2023/09/22 05:11:16;;;;;;;2.97;1.60;;;14.80;99.90;;;;;;5091118;28;20492;-61
2023/09/22 05:13:44;;;;;;;2.77;1.67;;;14.80;99.90;;;;;;5091168;28;20439;-61
2023/09/22 05:16:13;;;;;;;3.23;1.60;;;14.80;99.90;;;;;;5091191;28;20496;-62
2023/09/22 05:18:39;;;;;;;3.67;1.70;;;14.70;99.90;;;;;;5093136;28;20438;-61
2023/09/22 05:21:09;;;;;;;2.93;2.50;;;14.70;99.90;;;;;;5093798;28;20458;-61
2023/09/22 05:23:36;;;;;;;4.23;2.00;;;14.70;99.90;;;;;;5080317;28;20539;-63
2023/09/22 05:26:06;;;;;;;2.17;1.97;;;14.70;99.90;;;;;;5079445;28;20538;-63
2023/09/22 05:28:33;;;;;;;3.30;1.80;;;14.80;99.90;;;;;;5077582;28;20489;-61
2023/09/22 05:31:00;;;;;;;2.47;1.70;;;14.80;99.90;;;;;;5077149;28;20491;-60
2023/09/22 05:33:28;;;;;;;1.70;1.40;;;14.80;99.90;;;;;;5077699;28;20976;-63
2023/09/22 05:35:55;;;;;;;2.47;1.80;;;14.90;99.90;;;;;;5077859;28;20443;-61
2023/09/22 05:38:23;;;;;;;2.40;1.80;;;14.90;99.90;;;;;;5076657;28;20929;-62
2023/09/22 05:40:50;;;;;;;2.47;1.80;;;15.00;99.90;;;;;;5077703;28;20447;-61
2023/09/22 05:43:18;;;;;;;2.43;1.60;;;15.00;99.90;;;;;;5077329;28;20446;-61
2023/09/22 05:45:45;;;;;;;2.63;1.87;;;15.10;99.90;;;;;;5076993;28;20444;-60
2023/09/22 05:48:12;;;;;;;2.97;2.00;;;15.10;99.90;;;;;;5077588;28;20447;-61
2023/09/22 05:50:40;;;;;;;2.60;2.00;;;15.10;99.90;;;;;;5078515;28;20476;-62
2023/09/22 05:53:07;;;;;;;2.20;1.90;;;15.10;99.90;;;;;;5078036;28;20470;-61
2023/09/22 05:55:36;;;;;;;1.63;1.50;;;15.20;99.90;;;;;;5077029;28;20467;-60
2023/09/22 05:58:02;;;;;;;3.40;1.63;;;15.20;99.90;;;;;;5078235;28;20965;-61
2023/09/22 06:00:31;;;;;;;4.43;1.50;;;15.20;99.90;;;;;;5077190;28;20446;-61
2023/09/22 06:02:58;;;;;;;3.40;1.70;;;15.20;99.90;;;;;;5077876;28;20467;-62
2023/09/22 06:05:28;;;;;;;2.23;1.57;;;15.20;99.90;;;;;;5077145;28;20457;-62
2023/09/22 06:07:55;;;;;;;1.90;1.67;;;15.30;99.90;;;;;;5078251;28;20469;-61
2023/09/22 06:10:22;;;;;;;2.80;2.10;;;15.30;99.90;;;;;;5077561;28;20452;-62
2023/09/22 06:12:51;;;;;;;2.00;1.80;;;15.30;99.90;;;;;;5082779;28;20463;-61
2023/09/22 06:15:18;;;;;;;4.23;2.00;;;15.40;99.90;;;;;;5082823;28;20448;-62
2023/09/22 06:17:46;;;;;;;1.60;1.50;;;15.50;99.90;;;;;;5082838;28;20443;-61
2023/09/22 06:20:15;;;;;;;2.27;1.80;;;15.50;99.90;;;;;;5082534;28;20444;-62
2023/09/22 06:22:43;;;;;;;2.33;1.80;;;15.60;99.90;;;;;;5084829;28;20468;-61
2023/09/22 06:25:13;;;;;;;2.77;2.10;;;15.60;99.90;;;;;;5083700;28;20444;-61
2023/09/22 06:27:40;;;;;;;2.00;1.80;;;15.70;99.90;;;;;;5084496;28;20450;-60
2023/09/22 06:30:11;;;;;;;2.17;1.80;;;15.60;99.90;;;;;;5085999;28;20443;-60
2023/09/22 06:32:40;;;;;;;2.80;1.33;;;15.60;99.90;;;;;;5087995;28;20502;-60
2023/09/22 06:35:08;;;;;;;2.20;2.00;;;15.60;99.90;;;;;;5088916;28;20459;-61
2023/09/22 06:37:36;;;;;;;2.03;1.67;;;15.60;99.90;;;;;;5083563;28;20797;-61
2023/09/22 06:40:06;;;;;;;2.43;1.90;;;15.60;99.90;;;;;;5086018;28;20451;-63
2023/09/22 06:42:32;;;;;;;6.00;3.17;;;15.60;99.90;;;;;;5082307;28;20463;-60
2023/09/22 06:44:59;;;;;;;2.07;1.83;;;15.70;99.90;;;;;;5082935;28;20534;-59
2023/09/22 06:47:28;;;;;;;1.90;1.70;;;15.70;99.90;;;;;;5082179;28;20601;-62
2023/09/22 06:49:59;;;;;;;2.83;1.90;;;15.80;99.90;;;;;;5081071;28;20471;-60
2023/09/22 06:52:26;;;;;;;3.20;1.80;;;15.90;99.90;;;;;;5081571;28;20483;-61
2023/09/22 06:54:52;;;;;;;4.50;1.73;;;16.00;99.90;;;;;;5076855;28;20443;-61
2023/09/22 06:57:19;;;;;;;3.50;1.57;;;16.10;99.90;;;;;;5076624;28;20893;-61
2023/09/22 06:59:46;;;;;;;4.20;2.40;;;16.20;99.90;;;;;;5077355;28;20443;-61
2023/09/22 07:02:13;;;;;;;2.40;1.53;;;16.30;99.90;;;;;;5083143;28;20470;-61
2023/09/22 07:04:41;;;;;;;2.47;1.90;;;16.50;99.90;;;;;;5085693;28;20440;-61
2023/09/22 07:07:10;;;;;;;2.00;1.40;;;16.60;99.90;;;;;;5081618;28;20466;-61
2023/09/22 07:09:37;;;;;;;1.57;1.47;;;16.70;99.90;;;;;;5077706;28;20439;-62
2023/09/22 07:12:04;;;;;;;1.30;1.20;;;16.60;99.90;;;;;;5075954;28;20494;-60
2023/09/22 07:14:33;;;;;;;1.53;1.27;;;16.60;99.90;;;;;;5079443;28;20443;-60
2023/09/22 07:17:00;;;;;;;2.07;1.40;;;16.60;99.90;;;;;;5077319;28;20436;-61
2023/09/22 07:19:27;;;;;;;2.43;1.70;;;16.50;99.90;;;;;;5079790;28;20458;-61
2023/09/22 07:21:55;;;;;;;4.30;1.47;;;16.50;99.90;;;;;;5077826;28;20546;-61
2023/09/22 07:24:22;;;;;;;3.17;2.10;;;16.50;99.90;;;;;;5075411;28;20440;-60
2023/09/22 07:26:50;;;;;;;2.47;1.60;;;16.50;99.90;;;;;;5076429;28;20443;-61
2023/09/22 07:29:17;;;;;;;3.47;2.20;;;16.50;99.90;;;;;;5078195;28;20534;-58
2023/09/22 07:31:45;;;;;;;2.23;1.63;;;16.60;99.90;;;;;;5076124;28;20476;-60
2023/09/22 07:34:12;;;;;;;4.80;1.73;;;16.70;99.90;;;;;;5075215;28;20451;-61
2023/09/22 07:36:39;;;;;;;10.63;3.57;;;16.80;99.90;;;;;;5074927;28;20455;-61
2023/09/22 07:39:09;;;;;;;3.47;1.63;;;16.80;99.90;;;;;;5075621;28;20493;-61
2023/09/22 07:41:36;;;;;;;2.77;1.60;;;16.80;99.90;;;;;;5076837;28;20513;-60
2023/09/22 07:44:04;;;;;;;3.93;1.80;;;16.80;99.90;;;;;;5074660;28;20547;-61
2023/09/22 07:46:30;;;;;;;2.60;2.40;;;16.80;99.90;;;;;;5074148;28;20455;-62
2023/09/22 07:48:57;;;;;;;3.17;1.83;;;16.80;99.90;;;;;;5074687;28;20439;-60
2023/09/22 07:51:24;;;;;;;2.07;1.87;;;16.90;99.90;;;;;;5074519;28;20479;-60
2023/09/22 07:53:51;;;;;;;2.67;2.00;;;17.00;99.90;;;;;;5073989;28;20454;-61
2023/09/22 07:56:19;;;;;;;3.57;2.13;;;17.20;99.90;;;;;;5073777;28;20446;-61
2023/09/22 07:58:46;;;;;;;2.23;1.57;;;17.40;99.90;;;;;;5074200;28;20443;-61
2023/09/22 08:01:15;;;;;;;3.10;1.90;;;17.60;99.90;;;;;;5074145;28;20460;-61
2023/09/22 08:03:43;;;;;;;2.60;1.37;;;17.70;99.90;;;;;;5074493;28;20471;-61
2023/09/22 08:06:11;;;;;;;2.20;1.40;;;17.90;99.90;;;;;;5073798;28;20443;-60
2023/09/22 08:08:38;;;;;;;2.30;1.60;;;18.10;99.90;;;;;;5075391;28;20451;-60
2023/09/22 08:11:05;;;;;;;1.90;1.50;;;18.30;99.90;;;;;;5074738;28;20468;-60
2023/09/22 08:13:34;;;;;;;3.70;1.50;;;18.40;99.90;;;;;;5074263;28;20440;-59
2023/09/22 08:16:01;;;;;;;2.87;1.57;;;18.40;99.90;;;;;;5074446;28;20440;-61
2023/09/22 08:18:28;;;;;;;3.80;1.80;;;18.30;99.50;;;;;;5074075;28;20937;-61
2023/09/22 08:20:55;;;;;;;2.80;1.47;;;18.10;99.40;;;;;;5074721;28;20450;-60
2023/09/22 08:23:22;;;;;;;3.40;1.53;;;17.90;99.50;;;;;;5074613;28;20439;-60
2023/09/22 08:25:49;;;;;;;3.20;1.90;;;17.70;99.50;;;;;;5075223;28;20443;-60
2023/09/22 08:28:16;;;;;;;6.67;1.70;;;17.60;99.70;;;;;;5075202;28;20443;-61
2023/09/22 08:30:44;;;;;;;5.40;1.80;;;17.50;99.90;;;;;;5074753;28;20436;-60
2023/09/22 08:33:11;;;;;;;2.37;1.93;;;17.50;99.90;;;;;;5073965;28;20483;-61
2023/09/22 08:35:39;;;;;;;3.20;1.83;;;17.40;99.90;;;;;;5074059;28;20443;-61
2023/09/22 08:38:06;;;;;;;4.53;1.63;;;17.40;99.70;;;;;;5074996;28;20883;-62
2023/09/22 08:40:33;;;;;;;3.23;1.73;;;17.40;99.50;;;;;;5075496;28;20435;-61
2023/09/22 08:43:02;;;;;;;2.23;1.47;;;17.40;99.30;;;;;;5076052;28;20834;-61
2023/09/22 08:45:29;;;;;;;2.30;1.40;;;17.50;99.00;;;;;;5076301;28;20450;-61
2023/09/22 08:47:58;;;;;;;2.57;1.70;;;17.60;98.60;;;;;;5075596;28;20436;-61
2023/09/22 08:50:26;;;;;;;3.47;2.00;;;17.70;98.20;;;;;;5075459;28;20432;-61
2023/09/22 08:52:52;;;;;;;3.20;1.93;;;17.70;97.80;;;;;;5074788;28;20853;-61
2023/09/22 08:55:21;;;;;;;2.53;1.50;;;17.90;97.40;;;;;;5074635;28;20439;-62
2023/09/22 08:57:49;;;;;;;2.63;1.60;;;18.10;96.90;;;;;;5077166;28;20450;-61
2023/09/22 09:00:19;;;;;;;1.63;1.37;;;18.30;96.40;;;;;;5080377;28;20443;-60
2023/09/22 09:02:47;;;;;;;3.33;3.00;;;18.40;95.80;;;;;;5078627;28;20561;-61
2023/09/22 09:05:23;;;;;;;2.00;1.40;;;18.50;95.50;;;;;;5079811;28;20818;-61
2023/09/22 09:07:51;;;;;;;2.03;1.37;;;18.70;95.00;;;;;;5079176;28;20420;-61
2023/09/22 09:10:29;;;;;;;2.60;1.40;;;18.90;94.40;;;;;;5078907;28;20447;-61
2023/09/22 09:12:57;;;;;;;3.57;1.47;;;19.10;93.70;;;;;;5078919;28;21057;-61
2023/09/22 09:15:26;;;;;;;3.53;1.83;;;19.30;92.60;;;;;;5078910;28;20466;-62
2023/09/22 09:18:04;;;;;;;1.73;1.00;;;19.50;92.00;;;;;;5079372;28;20442;-60
2023/09/22 09:20:34;;;;;;;3.27;1.20;;;19.60;90.80;;;;;;5079308;28;21032;-61
2023/09/22 09:23:12;;;;;;;3.27;1.50;;;19.60;90.00;;;;;;5078752;28;20546;-61
2023/09/22 09:25:42;;;;;;;2.20;1.30;;;19.60;88.70;;;;;;5078904;28;20438;-60
2023/09/22 09:28:09;;;;;;;2.53;1.57;;;19.50;87.80;;;;;;5078782;28;20420;-60
2023/09/22 09:30:36;;;;;;;5.40;1.43;;;19.50;87.70;;;;;;5079277;28;20440;-61
2023/09/22 09:33:09;;;;;;;1.67;1.30;;;19.50;87.40;;;;;;5078744;28;20850;-60
2023/09/22 09:35:39;;;;;;;2.40;1.80;;;19.40;86.60;;;;;;5078530;28;20534;-60
2023/09/22 09:38:08;;;;;;;2.47;1.60;;;19.30;86.50;;;;;;5079165;28;20440;-61
2023/09/22 09:40:37;;;;;;;4.37;2.00;;;19.20;87.00;;;;;;5078224;28;20447;-61
2023/09/22 09:43:07;;;;;;;1.93;1.40;;;19.10;87.00;;;;;;5078309;28;20444;-61
2023/09/22 09:45:35;;;;;;;1.90;1.27;;;19.10;87.20;;;;;;5077978;28;20427;-60
2023/09/22 09:48:09;;;;;;;4.30;1.67;;;19.10;87.10;;;;;;5078344;28;20933;-60
2023/09/22 09:50:39;;;;;;;2.67;1.40;;;19.10;87.50;;;;;;5077921;28;20423;-60
2023/09/22 09:53:13;;;;;;;5.27;1.20;;;19.30;87.40;;;;;;5077405;28;20463;-60
2023/09/22 09:55:42;;;;;;;1.93;1.10;;;19.40;86.10;;;;;;5077232;28;20519;-60
2023/09/22 09:58:11;;;;;;;2.10;1.20;;;19.60;85.40;;;;;;5077543;28;20465;-59
2023/09/22 10:00:42;;;;;;;2.33;1.60;;;19.70;84.40;;;;;;5077802;28;20501;-60
2023/09/22 10:03:09;;;;;;;2.77;1.47;;;19.70;83.60;;;;;;5077752;28;20431;-61
2023/09/22 10:05:38;;;;;;;1.90;1.30;;;19.80;83.00;;;;;;5078183;28;20446;-61
2023/09/22 10:08:07;;;;;;;3.87;1.40;;;19.80;82.50;;;;;;5076566;28;20527;-61
2023/09/22 10:10:38;;;;;;;2.60;1.03;;;19.80;81.60;;;;;;5077310;28;21018;-60
2023/09/22 10:13:05;;;;;;;3.47;1.50;;;19.60;80.00;;;;;;5077418;28;20525;-60
2023/09/22 10:15:57;;;;;;;2.90;1.37;;;19.50;80.30;;;;;;5077141;28;20439;-60
2023/09/22 10:18:45;;;;;;;2.00;1.10;;;19.50;80.30;;;;;;5070069;28;20950;-60
2023/09/22 10:21:36;;;;;;;1.33;0.90;;;19.70;79.70;;;;;;5077046;28;20968;-61
2023/09/22 10:24:24;;;;;;;6.00;1.60;;;19.80;78.60;;;;;;5078701;28;20443;-61
2023/09/22 10:27:14;;;;;;;2.77;1.20;;;20.10;77.60;;;;;;5077475;28;20428;-57
2023/09/22 10:29:51;;;;;;;1.20;0.90;;;20.30;76.40;;;;;;5077170;28;20861;-60
2023/09/22 10:32:23;;;;;;;2.43;1.40;;;20.50;75.40;;;;;;5077666;28;20494;-61
2023/09/22 10:34:51;;;;;;;2.03;1.30;;;20.70;74.50;;;;;;5077415;28;20424;-60
2023/09/22 10:37:20;;;;;;;1.50;1.20;;;20.80;73.70;;;;;;5077109;28;20444;-60
2023/09/22 10:39:51;;;;;;;3.67;1.40;;;20.90;72.90;;;;;;5077305;28;20534;-60
2023/09/22 10:42:18;;;;;;;1.80;1.10;;;20.90;72.40;;;;;;5075400;28;20452;-61
2023/09/22 10:45:01;;;;;;;3.40;1.63;;;20.90;71.90;;;;;;5075809;28;20869;-60
2023/09/22 10:47:42;;;;;;;1.70;1.07;;;20.90;71.70;;;;;;5075939;28;20416;-60
2023/09/22 10:50:13;;;;;;;5.23;1.33;;;20.90;71.10;;;;;;5076754;28;20461;-62
2023/09/22 10:52:49;;;;;;;2.10;1.47;;;20.80;71.20;;;;;;5075582;28;20510;-60
2023/09/22 10:55:24;;;;;;;2.60;1.40;;;20.80;71.40;;;;;;5076016;28;20427;-60
2023/09/22 10:57:51;;;;;;;2.67;1.50;;;21.00;70.90;;;;;;5076424;28;20430;-62
2023/09/22 11:00:18;;;;;;;2.97;1.23;;;21.20;70.10;;;;;;5075547;28;20447;-61
2023/09/22 11:02:45;;;;;;;1.70;1.20;;;21.40;68.80;;;;;;5075514;28;20936;-60
2023/09/22 11:05:12;;;;;;;2.53;1.43;;;21.50;68.10;;;;;;5074962;28;20442;-60
2023/09/22 11:07:42;;;;;;;2.47;1.30;;;21.60;67.70;;;;;;5075858;28;20977;-61
2023/09/22 11:10:10;;;;;;;3.10;0.87;;;21.70;67.10;;;;;;5074457;28;20467;-60
2023/09/22 11:12:37;;;;;;;2.13;1.00;;;21.70;66.40;;;;;;5075628;28;20482;-59
2023/09/22 11:15:04;;;;;;;1.30;0.90;;;21.50;66.00;;;;;;5076387;28;20446;-61
2023/09/22 11:17:41;;;;;;;2.10;1.40;;;21.50;66.10;;;;;;5076775;28;20443;-60
2023/09/22 11:20:13;;;;;;;3.10;1.30;;;21.60;65.60;;;;;;5075088;28;20458;-61
2023/09/22 11:22:42;;;;;;;2.23;0.93;;;21.70;65.00;;;;;;5075281;28;20973;-60
2023/09/22 11:25:10;;;;;;;1.43;0.90;;;21.70;64.40;;;;;;5077883;28;20450;-60
2023/09/22 11:27:45;;;;;;;1.20;0.90;;;21.70;63.70;;;;;;5077276;28;20444;-62
2023/09/22 11:30:15;;;;;;;1.43;0.90;;;21.60;62.90;;;;;;5076522;28;21006;-61
2023/09/22 11:32:45;;;;;;;1.40;0.80;;;21.50;62.90;;;;;;5077130;28;20567;-60
2023/09/22 11:35:28;;;;;;;1.30;1.00;;;21.50;63.10;;;;;;5075976;28;20515;-60
2023/09/22 11:37:56;;;;;;;2.70;0.93;;;21.50;62.80;;;;;;5076347;28;20428;-62
2023/09/22 11:40:25;;;;;;;1.60;0.90;;;21.40;62.50;;;;;;5076780;28;20493;-61
2023/09/22 11:42:52;;;;;;;1.70;1.00;;;21.40;62.40;;;;;;5077057;28;20542;-60
2023/09/22 11:45:23;;;;;;;1.57;1.00;;;21.40;62.10;;;;;;5076121;28;20439;-60
2023/09/22 11:47:50;;;;;;;3.63;1.30;;;21.50;62.00;;;;;;5076270;28;20497;-61
2023/09/22 11:50:25;;;;;;;1.83;1.00;;;21.60;62.00;;;;;;5077091;28;20439;-61
2023/09/22 11:52:52;;;;;;;2.80;1.10;;;21.80;61.80;;;;;;5076095;28;20828;-62
2023/09/22 11:55:20;;;;;;;1.80;0.87;;;21.70;61.40;;;;;;5075505;28;20762;-60
2023/09/22 11:57:47;;;;;;;1.37;0.90;;;21.60;61.40;;;;;;5075447;28;20530;-61
2023/09/22 12:00:15;;;;;;;1.97;1.00;;;21.50;61.30;;;;;;5075221;28;20805;-60
2023/09/22 12:02:42;;;;;;;1.10;0.70;;;21.50;61.50;;;;;;5076020;28;20467;-61
2023/09/22 12:05:09;;;;;;;2.70;1.00;;;21.50;61.50;;;;;;5075263;28;20487;-60
2023/09/22 12:07:36;;;;;;;2.73;0.80;;;21.40;61.30;;;;;;5074786;28;20446;-62
2023/09/22 12:10:03;;;;;;;2.10;1.00;;;21.50;61.40;;;;;;5074925;28;20458;-59
2023/09/22 12:12:32;;;;;;;2.83;1.20;;;21.50;61.10;;;;;;5075200;28;20501;-62
2023/09/22 12:14:59;;;;;;;3.80;1.10;;;21.70;60.90;;;;;;5075061;28;20937;-60
2023/09/22 12:17:26;;;;;;;2.40;0.80;;;21.90;60.10;;;;;;5076631;28;20537;-63
2023/09/22 12:19:53;;;;;;;1.10;0.90;;;22.10;59.70;;;;;;5077572;28;20929;-61
2023/09/22 12:22:19;;;;;;;2.03;0.90;;;22.40;59.50;;;;;;5075252;28;20474;-61
2023/09/22 12:24:46;;;;;;;1.80;0.80;;;22.50;59.10;;;;;;5075209;28;20447;-61
2023/09/22 12:27:13;;;;;;;1.60;0.90;;;22.50;58.70;;;;;;5077847;28;20816;-64
2023/09/22 12:29:41;;;;;;;1.30;0.80;;;22.30;58.50;;;;;;5077019;28;20846;-61
2023/09/22 12:32:08;;;;;;;1.37;0.90;;;22.10;58.80;;;;;;5075276;28;20486;-61
2023/09/22 12:34:35;;;;;;;1.40;1.10;;;22.00;59.00;;;;;;5077582;28;20853;-60
2023/09/22 12:37:02;;;;;;;1.77;1.03;;;21.80;59.30;;;;;;5078771;28;20446;-62
2023/09/22 12:39:29;;;;;;;2.00;0.90;;;21.80;59.70;;;;;;5078486;28;20446;-60
2023/09/22 12:41:56;;;;;;;1.53;1.07;;;21.70;60.00;;;;;;5078267;28;20475;-61
2023/09/22 12:44:23;;;;;;;2.40;1.00;;;21.80;60.20;;;;;;5081108;28;20449;-62
2023/09/22 12:46:51;;;;;;;1.63;1.10;;;22.20;60.10;;;;;;5080038;28;20447;-61
2023/09/22 12:49:18;;;;;;;1.20;0.90;;;22.50;59.10;;;;;;5079184;28;20443;-61
2023/09/22 12:51:45;;;;;;;2.30;1.03;;;22.70;58.50;;;;;;5080243;28;20538;-62
2023/09/22 12:54:11;;;;;;;2.60;1.00;;;22.80;57.90;;;;;;5080848;28;20471;-62
2023/09/22 12:56:38;;;;;;;2.60;1.07;;;22.70;57.60;;;;;;5080067;28;20443;-62
2023/09/22 12:59:07;;;;;;;2.90;1.40;;;22.60;57.50;;;;;;5079931;28;20444;-61